Time;durP1;ratioP1;P1;durP2;ratioP2;P2;SDS_P1;SDS_P2;PMS_P1;PMS_P2;Temp;Humidity;BMP_temperature;BMP_pressure;BME280_temperature;BME280_humidity;BME280_pressure;Samples;Min_cycle;Max_cycle;Signal;HPM_P1;HPM_P2
2021/12/06 00:07:48;;;;;;;3.10;0.95;;;;;;;;;;20913269;28;20414;-60
2021/12/06 00:17:50;;;;;;;1.38;1.20;;;;;;;;;;20912786;28;20057;-66
2021/12/06 00:27:52;;;;;;;2.47;0.65;;;;;;;;;;20918467;28;20097;-63
2021/12/06 00:37:57;;;;;;;1.35;0.77;;;;;;;;;;20929540;28;20513;-69
2021/12/06 00:48:00;;;;;;;1.05;0.70;;;;;;;;;;20927540;28;20045;-62
2021/12/06 00:58:03;;;;;;;2.15;0.90;;;;;;;;;;20927149;28;20052;-62
2021/12/06 01:08:05;;;;;;;1.70;0.70;;;;;;;;;;20927530;28;20052;-60
2021/12/06 01:18:09;;;;;;;2.45;1.00;;;;;;;;;;20925830;28;20485;-60
2021/12/06 01:48:56;;;;;;;2.28;0.70;;;;;;;;;;20922625;28;20427;-66
2021/12/06 01:58:59;;;;;;;5.45;0.95;;;;;;;;;;20921663;28;20187;-69
2021/12/06 02:09:03;;;;;;;3.75;1.00;;;;;;;;;;20921344;28;20049;-67
2021/12/06 02:19:06;;;;;;;2.55;1.33;;;;;;;;;;20920155;28;20080;-60
2021/12/06 02:29:09;;;;;;;3.30;1.70;;;;;;;;;;20918757;28;20080;-67
2021/12/06 02:39:26;;;;;;;2.10;0.88;;;;;;;;;;20918059;28;20087;-68
2021/12/06 02:49:47;;;;;;;1.52;0.50;;;;;;;;;;20916770;28;20053;-67
2021/12/06 03:00:08;;;;;;;0.95;0.60;;;;;;;;;;20916203;28;20053;-64
2021/12/06 03:10:30;;;;;;;2.15;0.55;;;;;;;;;;20917121;28;20052;-64
2021/12/06 03:20:48;;;;;;;0.80;0.40;;;;;;;;;;20915456;28;20053;-62
2021/12/06 03:31:04;;;;;;;0.88;0.50;;;;;;;;;;20914396;28;20049;-61
2021/12/06 03:41:21;;;;;;;0.90;0.45;;;;;;;;;;20913731;28;20111;-60
2021/12/06 03:51:35;;;;;;;1.87;0.57;;;;;;;;;;20912896;28;20052;-60
2021/12/06 04:01:47;;;;;;;1.23;0.55;;;;;;;;;;20911922;28;20141;-67
2021/12/06 04:12:08;;;;;;;0.77;0.50;;;;;;;;;;20912081;28;20540;-62
2021/12/06 04:22:20;;;;;;;1.65;0.60;;;;;;;;;;20911693;28;20049;-71
2021/12/06 04:32:34;;;;;;;2.30;0.60;;;;;;;;;;20911310;28;20049;-68
2021/12/06 04:42:56;;;;;;;1.08;0.50;;;;;;;;;;20910949;28;20053;-66
2021/12/06 04:53:20;;;;;;;1.98;0.60;;;;;;;;;;20910291;28;20118;-62
2021/12/06 05:03:42;;;;;;;0.70;0.70;;;;;;;;;;20910014;28;20056;-59
2021/12/06 05:14:04;;;;;;;1.42;0.68;;;;;;;;;;20913443;28;20060;-60
2021/12/06 05:24:22;;;;;;;0.88;0.65;;;;;;;;;;20924448;28;20087;-60
2021/12/06 05:34:38;;;;;;;0.82;0.50;;;;;;;;;;20923814;28;20562;-62
2021/12/06 05:44:48;;;;;;;1.83;0.70;;;;;;;;;;20922981;28;20048;-69
2021/12/06 05:54:55;;;;;;;1.45;0.50;;;;;;;;;;20921662;28;20056;-62
2021/12/06 06:04:59;;;;;;;1.67;1.00;;;;;;;;;;20921142;28;20055;-69
2021/12/06 06:15:03;;;;;;;1.30;0.60;;;;;;;;;;20921062;28;20057;-60
2021/12/06 06:25:07;;;;;;;1.52;1.33;;;;;;;;;;20918538;28;20453;-71
2021/12/06 06:35:10;;;;;;;1.95;0.65;;;;;;;;;;20918369;28;20045;-69
2021/12/06 06:45:16;;;;;;;0.93;0.63;;;;;;;;;;20917827;28;20160;-66
2021/12/06 06:55:22;;;;;;;1.10;0.68;;;;;;;;;;20917246;28;20091;-67
2021/12/06 07:05:28;;;;;;;1.47;0.70;;;;;;;;;;20915251;28;20048;-63
2021/12/06 07:15:32;;;;;;;1.48;0.75;;;;;;;;;;20916317;28;20045;-59
2021/12/06 07:25:39;;;;;;;2.85;0.80;;;;;;;;;;20914549;28;20083;-68
2021/12/06 07:35:45;;;;;;;1.52;0.70;;;;;;;;;;20916025;28;20132;-64
2021/12/06 07:45:49;;;;;;;2.22;1.15;;;;;;;;;;20938921;28;20094;-71
2021/12/06 07:55:52;;;;;;;2.22;1.00;;;;;;;;;;20923328;28;20563;-61
2021/12/06 08:05:58;;;;;;;2.28;1.02;;;;;;;;;;20912778;28;20045;-60
2021/12/06 08:16:07;;;;;;;1.67;0.70;;;;;;;;;;20912790;28;20045;-62
2021/12/06 08:26:11;;;;;;;1.90;0.88;;;;;;;;;;20911219;28;20095;-68
2021/12/06 08:36:16;;;;;;;4.53;0.83;;;;;;;;;;20911105;28;20049;-60
2021/12/06 08:46:39;;;;;;;1.85;0.73;;;;;;;;;;20913731;28;20053;-61
2021/12/06 08:57:04;;;;;;;1.85;1.13;;;;;;;;;;20928188;28;20045;-60
2021/12/06 09:07:27;;;;;;;1.90;0.90;;;;;;;;;;20929415;28;20045;-66
2021/12/06 09:17:40;;;;;;;1.75;0.90;;;;;;;;;;20927233;28;20049;-69
2021/12/06 09:28:03;;;;;;;1.40;1.02;;;;;;;;;;20925729;28;20045;-70
2021/12/06 09:38:15;;;;;;;2.22;0.80;;;;;;;;;;20923296;28;20045;-67
2021/12/06 09:48:22;;;;;;;1.63;0.85;;;;;;;;;;20921818;28;20079;-71
2021/12/06 09:58:27;;;;;;;3.13;0.83;;;;;;;;;;20920511;28;20104;-61
2021/12/06 10:08:36;;;;;;;4.97;3.42;;;;;;;;;;20920916;28;20454;-68
2021/12/06 10:18:43;;;;;;;1.05;0.60;;;;;;;;;;20920965;28;20080;-70
2021/12/06 10:28:47;;;;;;;1.20;0.60;;;;;;;;;;20919296;28;20053;-71
2021/12/06 10:38:53;;;;;;;1.17;0.63;;;;;;;;;;20918046;28;20049;-71
2021/12/06 10:49:01;;;;;;;1.08;0.50;;;;;;;;;;20917706;28;20049;-72
2021/12/06 10:59:10;;;;;;;0.73;0.70;;;;;;;;;;20916497;28;20095;-72
2021/12/06 11:09:17;;;;;;;1.10;0.70;;;;;;;;;;20915860;28;20081;-68
2021/12/06 11:19:23;;;;;;;2.17;0.80;;;;;;;;;;20915447;28;20506;-67
2021/12/06 11:29:33;;;;;;;3.35;1.48;;;;;;;;;;20914620;28;20045;-71
2021/12/06 11:39:37;;;;;;;0.80;0.60;;;;;;;;;;20914735;28;20136;-60
2021/12/06 11:49:42;;;;;;;2.33;0.80;;;;;;;;;;20914182;28;20044;-61
2021/12/06 11:59:51;;;;;;;1.00;0.60;;;;;;;;;;20913204;28;20112;-61
2021/12/06 12:09:57;;;;;;;1.92;0.75;;;;;;;;;;20913545;28;20076;-62
2021/12/06 12:20:05;;;;;;;1.95;1.02;;;;;;;;;;20901159;28;20140;-62
2021/12/06 12:30:09;;;;;;;5.47;2.80;;;;;;;;;;20928524;28;20056;-69
2021/12/06 12:40:15;;;;;;;4.37;1.20;;;;;;;;;;20929720;28;20491;-63
2021/12/06 12:50:17;;;;;;;3.58;1.92;;;;;;;;;;20931999;28;20474;-61
2021/12/06 13:00:24;;;;;;;11.95;7.13;;;;;;;;;;20930887;28;20045;-62
2021/12/06 13:10:30;;;;;;;2.33;1.30;;;;;;;;;;20928428;28;20110;-71
2021/12/06 13:20:37;;;;;;;7.53;3.03;;;;;;;;;;20937028;28;20095;-63
2021/12/06 13:30:45;;;;;;;1.98;0.98;;;;;;;;;;20933654;28;20045;-68
2021/12/06 13:40:52;;;;;;;2.17;1.10;;;;;;;;;;20922439;28;20411;-63
2021/12/06 13:50:58;;;;;;;3.20;1.95;;;;;;;;;;20922086;28;20120;-62
2021/12/06 14:01:03;;;;;;;2.75;1.38;;;;;;;;;;20922418;28;20053;-63
2021/12/06 14:11:06;;;;;;;2.60;1.45;;;;;;;;;;20921498;28;20415;-64
2021/12/06 14:21:10;;;;;;;5.10;2.85;;;;;;;;;;20919458;28;20522;-61
2021/12/06 14:31:13;;;;;;;1.85;1.00;;;;;;;;;;20918672;28;20052;-62
2021/12/06 14:41:16;;;;;;;17.25;11.70;;;;;;;;;;20917960;28;20441;-66
2021/12/06 14:51:27;;;;;;;4.63;2.75;;;;;;;;;;20916249;28;20091;-63
2021/12/06 15:01:30;;;;;;;2.22;1.00;;;;;;;;;;20915911;28;20052;-72
2021/12/06 15:11:35;;;;;;;2.25;1.20;;;;;;;;;;20915083;28;20048;-63
2021/12/06 15:21:44;;;;;;;3.75;1.48;;;;;;;;;;20914206;28;20095;-69
2021/12/06 15:31:49;;;;;;;2.63;1.50;;;;;;;;;;20914007;28;20047;-68
2021/12/06 15:41:57;;;;;;;4.70;2.67;;;;;;;;;;20914410;28;20068;-64
2021/12/06 15:52:03;;;;;;;2.80;1.50;;;;;;;;;;20912691;28;20049;-68
2021/12/06 16:02:09;;;;;;;7.00;2.50;;;;;;;;;;20909989;28;20118;-64
2021/12/06 16:12:12;;;;;;;3.30;1.50;;;;;;;;;;20910724;28;20411;-64
2021/12/06 16:22:15;;;;;;;3.28;1.30;;;;;;;;;;20911319;28;20064;-68
2021/12/06 16:32:19;;;;;;;4.03;1.50;;;;;;;;;;20910926;28;20123;-66
2021/12/06 16:42:29;;;;;;;3.13;1.40;;;;;;;;;;20910382;28;20060;-63
2021/12/06 16:52:34;;;;;;;3.17;1.80;;;;;;;;;;20909513;28;20049;-61
2021/12/06 17:02:37;;;;;;;3.50;1.70;;;;;;;;;;20909201;28;20099;-63
2021/12/06 17:12:39;;;;;;;2.33;1.73;;;;;;;;;;20918916;28;20093;-62
2021/12/06 17:22:46;;;;;;;6.95;3.60;;;;;;;;;;20923255;28;20053;-63
2021/12/06 17:32:52;;;;;;;3.58;2.22;;;;;;;;;;20923544;28;20632;-61
2021/12/06 17:42:56;;;;;;;4.78;2.35;;;;;;;;;;20922391;28;20414;-65
2021/12/06 17:52:59;;;;;;;3.65;2.83;;;;;;;;;;20921469;28;20164;-62
2021/12/06 18:03:02;;;;;;;4.53;2.38;;;;;;;;;;20922068;28;20459;-63
2021/12/06 18:13:05;;;;;;;3.63;2.10;;;;;;;;;;20920018;28;20045;-62
2021/12/06 18:23:08;;;;;;;3.67;2.07;;;;;;;;;;20918943;28;20072;-61
2021/12/06 18:33:11;;;;;;;6.40;2.90;;;;;;;;;;20917208;28;20048;-65
2021/12/06 18:43:33;;;;;;;5.17;2.90;;;;;;;;;;20918672;28;20064;-63
2021/12/06 18:53:36;;;;;;;5.63;3.28;;;;;;;;;;20916061;28;20059;-63
2021/12/06 19:03:39;;;;;;;4.63;2.55;;;;;;;;;;20915941;28;20511;-67
2021/12/06 19:13:41;;;;;;;6.13;3.08;;;;;;;;;;20914725;28;20049;-66
2021/12/06 19:23:47;;;;;;;8.18;4.43;;;;;;;;;;20914277;28;20503;-71
2021/12/06 19:33:51;;;;;;;9.77;4.15;;;;;;;;;;20913288;28;20049;-64
2021/12/06 19:43:54;;;;;;;13.13;7.35;;;;;;;;;;20912148;28;20049;-63
2021/12/06 19:53:57;;;;;;;5.90;3.15;;;;;;;;;;20911473;28;20057;-63
2021/12/06 20:04:00;;;;;;;5.80;2.80;;;;;;;;;;20911305;28;20052;-63
2021/12/06 20:14:03;;;;;;;4.57;2.90;;;;;;;;;;20911183;28;20120;-63
2021/12/06 20:24:07;;;;;;;10.20;6.67;;;;;;;;;;20911171;28;20049;-65
2021/12/06 20:34:10;;;;;;;6.82;3.47;;;;;;;;;;20910258;28;20132;-63
2021/12/06 20:44:16;;;;;;;;;;;;;;;;;;20915119;28;20045;-63
2021/12/06 20:54:19;;;;;;;9.65;5.05;;;;;;;;;;20925911;28;19925;-63
2021/12/06 21:04:24;;;;;;;9.35;5.47;;;;;;;;;;20925264;28;20479;-65
2021/12/06 21:24:48;;;;;;;10.88;5.70;;;;;;;;;;20923719;28;20114;-62
2021/12/06 21:34:50;;;;;;;14.00;6.50;;;;;;;;;;20923014;28;20052;-62
2021/12/06 21:44:53;;;;;;;11.48;6.30;;;;;;;;;;20923007;28;20060;-63
2021/12/06 21:54:55;;;;;;;12.65;7.57;;;;;;;;;;20920406;28;20049;-63
2021/12/06 22:04:57;;;;;;;9.65;5.85;;;;;;;;;;20921043;28;20128;-62
2021/12/06 22:15:00;;;;;;;16.33;6.85;;;;;;;;;;20920012;28;20060;-68
2021/12/06 22:25:04;;;;;;;9.85;6.68;;;;;;;;;;20918100;28;20422;-63
2021/12/06 22:35:06;;;;;;;11.45;6.47;;;;;;;;;;20918770;28;20049;-63
2021/12/06 22:45:09;;;;;;;7.80;5.00;;;;;;;;;;20917862;28;20068;-70
2021/12/06 22:55:11;;;;;;;9.45;5.05;;;;;;;;;;20919121;28;20084;-70
2021/12/06 23:05:13;;;;;;;8.07;5.07;;;;;;;;;;20916635;28;20789;-69
2021/12/06 23:15:19;;;;;;;6.43;4.55;;;;;;;;;;20916105;28;20146;-64
2021/12/06 23:25:21;;;;;;;7.43;4.32;;;;;;;;;;20913693;28;20048;-63
2021/12/06 23:35:31;;;;;;;8.10;3.65;;;;;;;;;;20914459;28;20049;-70
2021/12/06 23:55:54;;;;;;;10.10;4.53;;;;;;;;;;20914270;28;20048;-63
